createdAt,value
2022-12-09T00:00:12.967Z,1.50
2022-12-09T00:01:17.877Z,1.50
2022-12-09T00:02:20.356Z,1.40
2022-12-09T00:03:24.054Z,1.40
2022-12-09T00:04:26.617Z,1.50
2022-12-09T00:05:29.280Z,1.50
2022-12-09T00:06:31.873Z,1.50
2022-12-09T00:07:36.449Z,1.50
2022-12-09T00:08:38.903Z,1.50
2022-12-09T00:09:41.285Z,1.50
2022-12-09T00:10:45.468Z,1.50
2022-12-09T00:11:48.072Z,1.50
2022-12-09T00:12:55.166Z,1.50
2022-12-09T00:13:59.604Z,1.50
2022-12-09T00:15:01.966Z,1.50
2022-12-09T00:16:09.451Z,1.50
2022-12-09T00:17:12.068Z,1.50
2022-12-09T00:18:14.504Z,1.50
2022-12-09T00:19:16.944Z,1.50
2022-12-09T00:20:19.418Z,1.50
2022-12-09T00:21:32.342Z,1.50
2022-12-09T00:22:34.774Z,1.50
2022-12-09T00:23:37.062Z,1.50
2022-12-09T00:24:39.546Z,1.50
2022-12-09T00:25:41.843Z,1.40
2022-12-09T00:26:44.164Z,1.40
2022-12-09T00:27:46.402Z,1.40
2022-12-09T00:28:49.924Z,1.40
2022-12-09T00:29:52.219Z,1.40
2022-12-09T00:30:54.740Z,1.40
2022-12-09T00:31:57.448Z,1.40
2022-12-09T00:32:59.851Z,1.40
2022-12-09T00:34:05.206Z,1.40
2022-12-09T00:35:08.085Z,1.40
2022-12-09T00:36:15.553Z,1.40
2022-12-09T00:37:18.142Z,1.40
2022-12-09T00:38:20.870Z,1.40
2022-12-09T00:39:23.261Z,1.40
2022-12-09T00:40:25.574Z,1.40
2022-12-09T00:41:29.418Z,1.40
2022-12-09T00:42:31.849Z,1.40
2022-12-09T00:43:34.841Z,1.40
2022-12-09T00:44:37.170Z,1.40
2022-12-09T00:45:39.471Z,1.40
2022-12-09T00:46:41.908Z,1.30
2022-12-09T00:47:44.275Z,1.30
2022-12-09T00:48:47.241Z,1.30
2022-12-09T00:49:49.829Z,1.30
2022-12-09T00:50:52.123Z,1.30
2022-12-09T00:51:54.622Z,1.30
2022-12-09T00:52:57.720Z,1.30
2022-12-09T00:54:00.105Z,1.30
2022-12-09T00:55:02.830Z,1.30
2022-12-09T00:56:05.960Z,1.30
2022-12-09T00:57:08.197Z,1.30
2022-12-09T00:58:10.589Z,1.30
2022-12-09T00:59:12.849Z,1.30
2022-12-09T01:00:15.321Z,1.30
2022-12-09T01:01:18.070Z,1.30
2022-12-09T01:02:20.623Z,1.20
2022-12-09T01:03:23.290Z,1.30
2022-12-09T01:04:25.879Z,1.30
2022-12-09T01:05:28.244Z,1.30
2022-12-09T01:06:30.997Z,1.20
2022-12-09T01:07:37.554Z,1.20
2022-12-09T01:08:40.411Z,1.20
2022-12-09T01:09:42.781Z,1.20
2022-12-09T01:10:45.361Z,1.20
2022-12-09T01:11:47.627Z,1.20
2022-12-09T01:12:49.931Z,1.20
2022-12-09T01:13:52.957Z,1.20
2022-12-09T01:14:56.610Z,1.20
2022-12-09T01:15:59.704Z,1.10
2022-12-09T01:17:02.053Z,1.10
2022-12-09T01:18:05.670Z,1.10
2022-12-09T01:19:13.090Z,1.10
2022-12-09T01:20:15.578Z,1.10
2022-12-09T01:21:18.293Z,1.10
2022-12-09T01:22:20.900Z,1.10
2022-12-09T01:23:23.560Z,1.10
2022-12-09T01:24:25.950Z,1.00
2022-12-09T01:25:28.388Z,1.00
2022-12-09T01:26:30.617Z,1.00
2022-12-09T01:27:33.107Z,1.00
2022-12-09T01:28:36.771Z,1.00
2022-12-09T01:29:39.008Z,1.00
2022-12-09T01:30:41.427Z,1.00
2022-12-09T01:31:43.877Z,1.00
2022-12-09T01:32:47.150Z,1.00
2022-12-09T01:33:50.073Z,1.00
2022-12-09T01:34:53.124Z,1.00
2022-12-09T01:35:55.906Z,1.00
2022-12-09T01:36:58.204Z,1.00
2022-12-09T01:38:00.915Z,1.00
2022-12-09T01:39:03.637Z,1.00
2022-12-09T01:40:09.976Z,1.00
2022-12-09T01:41:14.280Z,1.00
2022-12-09T01:42:23.323Z,1.00
2022-12-09T01:43:26.240Z,1.00
2022-12-09T01:44:29.120Z,1.00
2022-12-09T01:45:40.976Z,1.10
2022-12-09T01:46:44.015Z,1.10
2022-12-09T01:47:57.026Z,1.10
2022-12-09T01:48:59.585Z,1.10
2022-12-09T01:50:02.235Z,1.10
2022-12-09T01:51:18.405Z,1.10
2022-12-09T01:52:23.719Z,1.10
2022-12-09T01:53:31.860Z,1.10
2022-12-09T01:54:35.221Z,1.20
2022-12-09T01:55:39.895Z,1.20
2022-12-09T01:56:42.378Z,1.20
2022-12-09T01:57:46.768Z,1.20
2022-12-09T01:58:50.301Z,1.20
2022-12-09T01:59:53.296Z,1.20
2022-12-09T02:00:56.538Z,1.30
2022-12-09T02:02:01.221Z,1.20
2022-12-09T02:03:04.043Z,1.20
2022-12-09T02:04:07.106Z,1.20
2022-12-09T02:05:10.987Z,1.30
2022-12-09T02:06:16.252Z,1.20
2022-12-09T02:07:20.449Z,1.30
2022-12-09T02:08:23.266Z,1.20
2022-12-09T02:09:27.215Z,1.20
2022-12-09T02:10:31.310Z,1.30
2022-12-09T02:11:54.252Z,1.30
2022-12-09T02:13:31.998Z,1.30
2022-12-09T02:14:46.083Z,1.30
2022-12-09T02:15:55.788Z,1.30
2022-12-09T02:17:15.245Z,1.30
2022-12-09T02:18:40.350Z,1.30
2022-12-09T02:20:05.075Z,1.40
2022-12-09T02:21:21.645Z,1.40
2022-12-09T02:22:45.898Z,1.40
2022-12-09T02:23:49.100Z,1.40
2022-12-09T02:25:11.548Z,1.40
2022-12-09T02:26:55.822Z,1.40
2022-12-09T02:28:10.780Z,1.40
2022-12-09T02:29:33.890Z,1.50
2022-12-09T02:30:55.490Z,1.50
2022-12-09T02:32:28.702Z,1.50
2022-12-09T02:34:06.704Z,1.50
2022-12-09T02:35:18.619Z,1.50
2022-12-09T02:36:26.653Z,1.50
2022-12-09T02:37:33.002Z,1.50
2022-12-09T02:38:38.253Z,1.50
2022-12-09T02:39:49.419Z,1.50
2022-12-09T02:41:05.376Z,1.60
2022-12-09T02:42:14.146Z,1.60
2022-12-09T02:43:20.241Z,1.60
2022-12-09T02:44:24.387Z,1.60
2022-12-09T02:45:29.873Z,1.60
2022-12-09T02:46:34.340Z,1.60
2022-12-09T02:47:43.141Z,1.60
2022-12-09T02:48:53.127Z,1.60
2022-12-09T02:50:00.816Z,1.60
2022-12-09T02:51:07.931Z,1.60
2022-12-09T02:52:11.957Z,1.60
2022-12-09T02:53:16.100Z,1.60
2022-12-09T02:54:20.547Z,1.60
2022-12-09T02:55:23.737Z,1.60
2022-12-09T02:56:27.908Z,1.60
2022-12-09T02:57:32.031Z,1.60
2022-12-09T02:58:34.665Z,1.60
2022-12-09T02:59:37.365Z,1.60
2022-12-09T03:00:41.040Z,1.70
2022-12-09T03:01:47.757Z,1.70
2022-12-09T03:02:53.964Z,1.70
2022-12-09T03:03:56.802Z,1.70
2022-12-09T03:05:14.421Z,1.70
2022-12-09T03:06:19.998Z,1.70
2022-12-09T03:07:32.197Z,1.80
2022-12-09T03:09:00.976Z,1.80
2022-12-09T03:10:25.839Z,1.80
2022-12-09T03:11:29.080Z,1.80
2022-12-09T03:12:33.683Z,1.80
2022-12-09T03:13:47.396Z,1.80
2022-12-09T03:14:53.165Z,1.80
2022-12-09T03:16:04.535Z,1.80
2022-12-09T03:17:18.777Z,1.80
2022-12-09T03:18:22.381Z,1.80
2022-12-09T03:19:33.775Z,1.80
2022-12-09T03:20:39.557Z,1.80
2022-12-09T03:21:46.018Z,1.80
2022-12-09T03:22:49.875Z,1.80
2022-12-09T03:23:55.534Z,1.80
2022-12-09T03:25:10.559Z,1.80
2022-12-09T03:26:15.655Z,1.80
2022-12-09T03:27:47.977Z,1.80
2022-12-09T03:28:52.103Z,1.80
2022-12-09T03:29:57.519Z,1.80
2022-12-09T03:31:04.407Z,1.70
2022-12-09T03:32:09.140Z,1.70
2022-12-09T03:33:15.677Z,1.80
2022-12-09T03:34:22.763Z,1.70
2022-12-09T03:35:38.227Z,1.80
2022-12-09T03:36:42.265Z,1.70
2022-12-09T03:37:46.475Z,1.70
2022-12-09T03:38:51.391Z,1.70
2022-12-09T03:39:56.631Z,1.70
2022-12-09T03:41:17.234Z,1.70
2022-12-09T03:42:23.338Z,1.70
2022-12-09T03:43:30.480Z,1.70
2022-12-09T03:44:39.192Z,1.70
2022-12-09T03:45:42.358Z,1.70
2022-12-09T03:46:45.381Z,1.70
2022-12-09T03:47:48.198Z,1.70
2022-12-09T03:48:50.793Z,1.70
2022-12-09T03:49:53.651Z,1.70
2022-12-09T03:50:59.531Z,1.70
2022-12-09T03:52:04.617Z,1.70
2022-12-09T03:53:12.979Z,1.70
2022-12-09T03:54:24.303Z,1.70
2022-12-09T03:55:51.583Z,1.70
2022-12-09T03:56:57.045Z,1.70
2022-12-09T03:58:01.468Z,1.70
2022-12-09T03:59:07.927Z,1.70
2022-12-09T04:00:11.056Z,1.70
2022-12-09T04:01:17.049Z,1.70
2022-12-09T04:02:19.840Z,1.70
2022-12-09T04:03:22.504Z,1.70
2022-12-09T04:04:25.291Z,1.70
2022-12-09T04:05:27.815Z,1.70
2022-12-09T04:06:30.467Z,1.60
2022-12-09T04:07:32.759Z,1.70
2022-12-09T04:08:35.073Z,1.70
2022-12-09T04:09:37.799Z,1.70
2022-12-09T04:10:40.941Z,1.60
2022-12-09T04:11:43.579Z,1.70
2022-12-09T04:12:46.187Z,1.60
2022-12-09T04:13:48.847Z,1.60
2022-12-09T04:14:51.289Z,1.60
2022-12-09T04:15:53.738Z,1.70
2022-12-09T04:16:56.166Z,1.70
2022-12-09T04:17:58.806Z,1.70
2022-12-09T04:19:01.719Z,1.70
2022-12-09T04:20:04.848Z,1.70
2022-12-09T04:21:13.028Z,1.70
2022-12-09T04:22:16.985Z,1.70
2022-12-09T04:23:19.518Z,1.70
2022-12-09T04:24:22.136Z,1.70
2022-12-09T04:25:24.871Z,1.70
2022-12-09T04:26:27.485Z,1.80
2022-12-09T04:27:30.035Z,1.70
2022-12-09T04:28:32.987Z,1.80
2022-12-09T04:29:35.265Z,1.80
2022-12-09T04:30:37.570Z,1.80
2022-12-09T04:31:40.437Z,1.80
2022-12-09T04:32:44.087Z,1.80
2022-12-09T04:33:48.443Z,1.80
2022-12-09T04:34:50.763Z,1.80
2022-12-09T04:35:53.040Z,1.80
2022-12-09T04:36:55.580Z,1.80
2022-12-09T04:37:57.956Z,1.80
2022-12-09T04:39:00.610Z,1.90
2022-12-09T04:40:06.747Z,1.90
2022-12-09T04:41:10.444Z,1.90
2022-12-09T04:42:12.941Z,1.90
2022-12-09T04:43:15.275Z,1.90
2022-12-09T04:44:17.635Z,1.90
2022-12-09T04:45:20.241Z,1.90
2022-12-09T04:46:22.720Z,1.90
2022-12-09T04:47:25.266Z,1.90
2022-12-09T04:48:28.559Z,1.90
2022-12-09T04:49:31.822Z,1.90
2022-12-09T04:50:34.140Z,1.90
2022-12-09T04:51:39.938Z,1.90
2022-12-09T04:52:43.220Z,1.90
2022-12-09T04:53:45.748Z,2.00
2022-12-09T04:54:50.324Z,2.00
2022-12-09T04:56:04.884Z,2.00
2022-12-09T04:57:07.251Z,2.00
2022-12-09T04:58:09.643Z,1.90
2022-12-09T04:59:12.015Z,1.90
2022-12-09T05:00:15.393Z,1.90
2022-12-09T05:01:26.396Z,1.90
2022-12-09T05:02:32.669Z,1.80
2022-12-09T05:03:36.000Z,1.80
2022-12-09T05:04:38.845Z,1.80
2022-12-09T05:05:41.765Z,1.80
2022-12-09T05:06:44.279Z,1.80
2022-12-09T05:07:47.596Z,1.80
2022-12-09T05:08:50.932Z,1.80
2022-12-09T05:09:53.842Z,1.80
2022-12-09T05:10:56.644Z,1.80
2022-12-09T05:11:59.290Z,1.80
2022-12-09T05:13:01.657Z,1.80
2022-12-09T05:14:04.368Z,1.80
2022-12-09T05:15:07.270Z,1.80
2022-12-09T05:16:16.383Z,1.80
2022-12-09T05:17:19.657Z,1.80
2022-12-09T05:18:22.470Z,1.80
2022-12-09T05:19:25.184Z,1.80
2022-12-09T05:20:29.874Z,1.80
2022-12-09T05:21:32.487Z,1.80
2022-12-09T05:22:35.238Z,1.80
2022-12-09T05:23:38.480Z,1.80
2022-12-09T05:24:41.238Z,1.70
2022-12-09T05:25:43.902Z,1.70
2022-12-09T05:26:46.769Z,1.80
2022-12-09T05:27:49.369Z,1.70
2022-12-09T05:28:52.418Z,1.70
2022-12-09T05:29:54.939Z,1.70
2022-12-09T05:31:03.979Z,1.70
2022-12-09T05:32:07.073Z,1.70
2022-12-09T05:33:09.489Z,1.70
2022-12-09T05:34:12.326Z,1.70
2022-12-09T05:35:14.853Z,1.70
2022-12-09T05:36:20.551Z,1.60
2022-12-09T05:37:23.476Z,1.60
2022-12-09T05:38:26.343Z,1.60
2022-12-09T05:39:29.210Z,1.60
2022-12-09T05:40:31.550Z,1.60
2022-12-09T05:41:33.933Z,1.60
2022-12-09T05:42:41.117Z,1.60
2022-12-09T05:43:45.178Z,1.60
2022-12-09T05:44:47.703Z,1.60
2022-12-09T05:45:50.206Z,1.60
2022-12-09T05:46:52.886Z,1.60
2022-12-09T05:47:55.628Z,1.60
2022-12-09T05:48:57.953Z,1.60
2022-12-09T05:50:04.500Z,1.60
2022-12-09T05:51:17.348Z,1.60
2022-12-09T05:52:20.035Z,1.60
2022-12-09T05:53:22.545Z,1.60
2022-12-09T05:54:25.157Z,1.60
2022-12-09T05:55:27.625Z,1.60
2022-12-09T05:56:31.095Z,1.60
2022-12-09T05:57:34.415Z,1.60
2022-12-09T05:58:36.876Z,1.60
2022-12-09T05:59:39.262Z,1.60
2022-12-09T06:00:41.858Z,1.60
2022-12-09T06:01:44.564Z,1.60
2022-12-09T06:02:47.059Z,1.50
2022-12-09T06:03:51.242Z,1.50
2022-12-09T06:04:55.680Z,1.60
2022-12-09T06:05:58.861Z,1.60
2022-12-09T06:07:01.462Z,1.50
2022-12-09T06:08:07.081Z,1.60
2022-12-09T06:09:12.145Z,1.50
2022-12-09T06:10:15.278Z,1.50
2022-12-09T06:11:21.375Z,1.50
2022-12-09T06:12:24.505Z,1.50
2022-12-09T06:13:27.427Z,1.60
2022-12-09T06:14:29.854Z,1.50
2022-12-09T06:15:34.465Z,1.50
2022-12-09T06:16:38.171Z,1.50
2022-12-09T06:17:41.053Z,1.50
2022-12-09T06:18:43.667Z,1.50
2022-12-09T06:19:46.264Z,1.50
2022-12-09T06:20:49.122Z,1.50
2022-12-09T06:21:51.707Z,1.50
2022-12-09T06:22:54.144Z,1.50
2022-12-09T06:23:56.794Z,1.50
2022-12-09T06:24:59.200Z,1.50
2022-12-09T06:26:02.264Z,1.50
2022-12-09T06:27:05.272Z,1.50
2022-12-09T06:28:08.029Z,1.50
2022-12-09T06:29:10.559Z,1.50
2022-12-09T06:30:13.221Z,1.50
2022-12-09T06:31:15.752Z,1.50
2022-12-09T06:32:18.824Z,1.50
2022-12-09T06:33:45.925Z,1.50
2022-12-09T06:34:43.972Z,1.50
2022-12-09T06:35:46.831Z,1.50
2022-12-09T06:36:49.755Z,1.50
2022-12-09T06:37:53.523Z,1.60
2022-12-09T06:38:57.030Z,1.50
2022-12-09T06:39:59.998Z,1.60
2022-12-09T06:41:09.440Z,1.50
2022-12-09T06:42:11.962Z,1.60
2022-12-09T06:43:14.502Z,1.50
2022-12-09T06:44:23.227Z,1.60
2022-12-09T06:45:25.985Z,1.60
2022-12-09T06:46:29.435Z,1.50
2022-12-09T06:47:33.022Z,1.60
2022-12-09T06:48:35.553Z,1.60
2022-12-09T06:49:38.468Z,1.60
2022-12-09T06:50:41.601Z,1.60
2022-12-09T06:52:31.748Z,1.60
2022-12-09T07:06:31.116Z,1.50
2022-12-09T07:07:33.938Z,1.50
2022-12-09T07:08:36.485Z,1.50
2022-12-09T07:09:39.795Z,1.50
2022-12-09T07:10:48.151Z,1.50
2022-12-09T07:11:54.193Z,1.50
2022-12-09T07:12:56.850Z,1.50
2022-12-09T07:13:59.750Z,1.50
2022-12-09T07:15:02.588Z,1.50
2022-12-09T07:16:05.407Z,1.50
2022-12-09T07:17:08.520Z,1.50
2022-12-09T07:18:11.102Z,1.50
2022-12-09T07:19:19.166Z,1.50
2022-12-09T07:20:22.260Z,1.50
2022-12-09T07:21:25.110Z,1.50
2022-12-09T07:22:27.890Z,1.40
2022-12-09T07:23:30.167Z,1.40
2022-12-09T07:24:32.805Z,1.40
2022-12-09T07:25:35.488Z,1.30
2022-12-09T07:26:38.301Z,1.30
2022-12-09T07:27:41.044Z,1.20
2022-12-09T07:28:44.855Z,1.20
2022-12-09T07:29:47.451Z,1.20
2022-12-09T07:30:50.268Z,1.20
2022-12-09T07:31:53.448Z,1.20
2022-12-09T07:32:56.083Z,1.20
2022-12-09T07:33:59.890Z,1.20
2022-12-09T07:35:02.855Z,1.20
2022-12-09T07:36:05.732Z,1.20
2022-12-09T07:37:08.512Z,1.20
2022-12-09T07:38:10.968Z,1.20
2022-12-09T07:39:16.383Z,1.20
2022-12-09T07:40:19.095Z,1.20
2022-12-09T07:41:21.798Z,1.20
2022-12-09T07:42:24.570Z,1.20
2022-12-09T07:43:29.595Z,1.20
2022-12-09T07:44:32.465Z,1.20
2022-12-09T07:45:35.124Z,1.20
2022-12-09T07:46:39.030Z,1.20
2022-12-09T07:47:42.263Z,1.20
2022-12-09T07:48:45.192Z,1.20
2022-12-09T07:49:48.412Z,1.20
2022-12-09T07:50:50.864Z,1.10
2022-12-09T07:51:53.576Z,1.20
2022-12-09T07:52:56.154Z,1.10
2022-12-09T07:53:58.760Z,1.10
2022-12-09T07:55:01.745Z,1.10
2022-12-09T07:56:08.062Z,1.10
2022-12-09T07:57:10.749Z,1.10
2022-12-09T07:58:13.507Z,1.10
2022-12-09T07:59:16.965Z,1.10
2022-12-09T08:00:20.199Z,1.10
2022-12-09T08:01:29.317Z,1.10
2022-12-09T08:02:31.917Z,1.10
2022-12-09T08:03:35.004Z,1.10
2022-12-09T08:04:37.668Z,1.20
2022-12-09T08:05:47.954Z,1.20
2022-12-09T08:06:50.586Z,1.20
2022-12-09T08:07:53.606Z,1.20
2022-12-09T08:09:04.203Z,1.30
2022-12-09T08:10:07.707Z,1.30
2022-12-09T08:11:13.022Z,1.30
2022-12-09T08:12:15.948Z,1.30
2022-12-09T08:13:18.379Z,1.30
2022-12-09T08:14:20.985Z,1.30
2022-12-09T08:15:23.784Z,1.30
2022-12-09T08:16:26.689Z,1.30
2022-12-09T08:17:30.925Z,1.30
2022-12-09T08:18:34.897Z,1.30
2022-12-09T08:19:37.325Z,1.30
2022-12-09T08:20:41.101Z,1.30
2022-12-09T08:21:44.886Z,1.30
2022-12-09T08:22:49.338Z,1.30
2022-12-09T08:23:52.835Z,1.30
2022-12-09T08:24:55.818Z,1.20
2022-12-09T08:25:58.706Z,1.10
2022-12-09T08:27:01.319Z,1.10
2022-12-09T08:28:04.696Z,1.10
2022-12-09T08:29:09.179Z,1.10
2022-12-09T08:30:12.532Z,1.00
2022-12-09T08:31:17.849Z,1.00
2022-12-09T08:32:20.403Z,1.00
2022-12-09T08:33:23.801Z,1.00
2022-12-09T08:34:26.352Z,1.00
2022-12-09T08:35:30.004Z,1.00
2022-12-09T08:36:33.264Z,1.10
2022-12-09T08:37:35.753Z,1.10
2022-12-09T08:38:38.821Z,1.10
2022-12-09T08:39:41.263Z,1.20
2022-12-09T08:40:43.770Z,1.20
2022-12-09T08:41:46.158Z,1.30
2022-12-09T08:42:48.526Z,1.30
2022-12-09T08:43:51.311Z,1.30
2022-12-09T08:44:58.594Z,1.30
2022-12-09T08:46:04.247Z,1.40
2022-12-09T08:47:07.429Z,1.40
2022-12-09T08:48:10.508Z,1.40
2022-12-09T08:49:14.551Z,1.40
2022-12-09T08:50:18.157Z,1.40
2022-12-09T08:51:20.961Z,1.40
2022-12-09T08:52:23.324Z,1.40
2022-12-09T08:53:25.781Z,1.40
2022-12-09T08:54:28.793Z,1.40
2022-12-09T08:55:31.241Z,1.30
2022-12-09T08:56:34.420Z,1.30
2022-12-09T08:57:37.248Z,1.20
2022-12-09T08:58:41.076Z,1.20
2022-12-09T08:59:45.364Z,1.20
2022-12-09T09:00:48.267Z,1.20
2022-12-09T09:01:51.549Z,1.20
2022-12-09T09:02:54.268Z,1.20
2022-12-09T09:03:57.556Z,1.20
2022-12-09T09:05:00.181Z,1.20
2022-12-09T09:06:09.494Z,1.20
2022-12-09T09:07:14.063Z,1.20
2022-12-09T09:08:16.652Z,1.20
2022-12-09T09:09:21.268Z,1.20
2022-12-09T09:10:24.158Z,1.20
2022-12-09T09:11:27.148Z,1.20
2022-12-09T09:12:29.885Z,1.30
2022-12-09T09:13:32.617Z,1.30
2022-12-09T09:14:35.617Z,1.30
2022-12-09T09:15:39.747Z,1.40
2022-12-09T09:16:44.240Z,1.40
2022-12-09T09:17:51.519Z,1.50
2022-12-09T09:18:55.258Z,1.50
2022-12-09T09:19:58.421Z,1.60
2022-12-09T09:21:01.230Z,1.60
2022-12-09T09:22:03.796Z,1.60
2022-12-09T09:23:06.827Z,1.60
2022-12-09T09:24:11.385Z,1.60
2022-12-09T09:25:14.554Z,1.60
2022-12-09T09:26:21.401Z,1.60
2022-12-09T09:27:23.776Z,1.70
2022-12-09T09:28:30.673Z,1.70
2022-12-09T09:29:34.276Z,1.70
2022-12-09T09:30:38.446Z,1.70
2022-12-09T09:31:41.278Z,1.70
2022-12-09T09:32:44.642Z,1.70
2022-12-09T09:33:47.984Z,1.70
2022-12-09T09:34:52.265Z,1.70
2022-12-09T09:36:08.327Z,1.60
2022-12-09T09:37:12.688Z,1.60
2022-12-09T09:38:15.238Z,1.60
2022-12-09T09:39:18.768Z,1.60
2022-12-09T09:40:22.552Z,1.60
2022-12-09T09:41:27.925Z,1.60
2022-12-09T09:42:47.950Z,1.60
2022-12-09T09:43:51.195Z,1.60
2022-12-09T09:44:55.631Z,1.60
2022-12-09T09:45:59.472Z,1.70
2022-12-09T09:47:12.288Z,1.70
2022-12-09T09:48:21.772Z,1.70
2022-12-09T09:49:46.206Z,1.80
2022-12-09T09:51:11.834Z,1.80
2022-12-09T09:52:19.047Z,1.80
2022-12-09T09:53:26.768Z,1.80
2022-12-09T09:54:29.271Z,1.80
2022-12-09T09:55:44.666Z,1.80
2022-12-09T09:57:07.044Z,1.80
2022-12-09T09:58:24.704Z,1.80
2022-12-09T09:59:51.639Z,1.90
2022-12-09T10:01:07.666Z,2.00
2022-12-09T10:02:18.480Z,2.00
2022-12-09T10:03:44.936Z,2.00
2022-12-09T10:05:05.021Z,2.10
2022-12-09T10:06:23.089Z,2.10
2022-12-09T10:07:41.235Z,2.10
2022-12-09T10:08:59.530Z,2.10
2022-12-09T10:10:30.421Z,2.10
2022-12-09T10:11:40.924Z,2.10
2022-12-09T10:13:18.795Z,2.10
2022-12-09T10:14:52.348Z,2.20
2022-12-09T10:16:08.536Z,2.10
2022-12-09T10:17:30.264Z,2.10
2022-12-09T10:18:39.075Z,2.10
2022-12-09T10:19:50.355Z,2.00
2022-12-09T10:20:52.974Z,2.00
2022-12-09T10:21:57.325Z,2.10
2022-12-09T10:23:05.887Z,2.10
2022-12-09T10:24:27.803Z,2.10
2022-12-09T10:25:36.499Z,2.10
2022-12-09T10:26:39.396Z,2.10
2022-12-09T10:27:53.968Z,2.20
2022-12-09T10:29:20.052Z,2.20
2022-12-09T10:30:23.105Z,2.20
2022-12-09T10:31:28.040Z,2.30
2022-12-09T10:32:34.569Z,2.30
2022-12-09T10:33:39.235Z,2.30
2022-12-09T10:34:42.791Z,2.30
2022-12-09T10:35:46.756Z,2.30
2022-12-09T10:36:49.515Z,2.30
2022-12-09T10:37:53.550Z,2.30
2022-12-09T10:38:56.149Z,2.30
2022-12-09T10:40:10.977Z,2.30
2022-12-09T10:41:53.966Z,2.30
2022-12-09T10:43:17.716Z,2.20
2022-12-09T10:44:23.204Z,2.20
2022-12-09T10:45:35.646Z,2.20
2022-12-09T10:46:48.716Z,2.20
2022-12-09T10:47:53.047Z,2.30
2022-12-09T10:49:01.621Z,2.30
2022-12-09T10:50:06.628Z,2.30
2022-12-09T10:51:25.990Z,2.20
2022-12-09T10:52:31.762Z,2.20
2022-12-09T10:53:35.989Z,2.10
2022-12-09T10:54:44.922Z,2.10
2022-12-09T10:55:52.220Z,2.10
2022-12-09T10:57:14.438Z,2.00
2022-12-09T10:58:28.358Z,2.00
2022-12-09T10:59:32.144Z,1.90
2022-12-09T11:00:35.170Z,1.90
2022-12-09T11:01:59.691Z,1.90
2022-12-09T11:03:03.622Z,2.00
2022-12-09T11:04:13.319Z,1.90
2022-12-09T11:05:26.380Z,1.90
2022-12-09T11:06:41.575Z,2.00
2022-12-09T11:07:49.354Z,2.00
2022-12-09T11:08:59.387Z,2.10
2022-12-09T11:10:02.803Z,2.10
2022-12-09T11:11:06.065Z,2.20
2022-12-09T11:12:36.225Z,2.20
2022-12-09T11:15:12.517Z,2.20
2022-12-09T11:16:15.211Z,2.20
2022-12-09T11:17:35.971Z,2.10
2022-12-09T11:18:47.358Z,2.10
2022-12-09T11:19:55.387Z,2.10
2022-12-09T11:21:06.892Z,2.10
2022-12-09T11:22:29.044Z,2.10
2022-12-09T11:23:32.595Z,2.10
2022-12-09T11:24:37.000Z,2.10
2022-12-09T11:25:53.171Z,2.10
2022-12-09T11:26:55.571Z,2.00
2022-12-09T11:28:26.126Z,2.10
2022-12-09T11:29:28.741Z,2.00
2022-12-09T11:30:57.561Z,2.00
2022-12-09T11:32:04.822Z,1.90
2022-12-09T11:33:18.869Z,1.90
2022-12-09T11:34:25.165Z,1.90
2022-12-09T11:35:39.217Z,1.80
2022-12-09T11:36:52.214Z,1.90
2022-12-09T11:37:55.061Z,1.90
2022-12-09T11:39:17.860Z,1.90
2022-12-09T11:40:21.289Z,1.90
2022-12-09T11:41:45.196Z,1.90
2022-12-09T11:43:11.153Z,2.00
2022-12-09T11:44:15.744Z,2.00
2022-12-09T11:45:30.873Z,2.00
2022-12-09T11:46:33.217Z,2.00
2022-12-09T11:49:06.495Z,2.10
2022-12-09T11:50:24.054Z,2.00
2022-12-09T11:51:39.957Z,2.00
2022-12-09T11:52:43.499Z,2.10
2022-12-09T11:53:46.563Z,2.00
2022-12-09T11:55:05.483Z,2.00
2022-12-09T11:56:16.881Z,2.00
2022-12-09T11:57:52.773Z,2.00
2022-12-09T11:58:58.831Z,2.00
2022-12-09T12:00:06.909Z,1.90
2022-12-09T12:01:32.826Z,1.90
2022-12-09T12:02:40.698Z,1.90
2022-12-09T12:03:48.608Z,1.90
2022-12-09T12:05:23.884Z,1.90
2022-12-09T12:06:32.092Z,2.00
2022-12-09T12:07:47.189Z,2.00
2022-12-09T12:09:12.239Z,2.00
2022-12-09T12:10:58.072Z,2.00
2022-12-09T12:12:40.205Z,2.10
2022-12-09T12:14:05.699Z,2.00
2022-12-09T12:15:22.647Z,2.00
2022-12-09T12:16:59.038Z,2.00
2022-12-09T12:18:36.609Z,2.00
2022-12-09T12:20:00.693Z,1.90
2022-12-09T12:21:45.971Z,1.90
2022-12-09T12:23:26.295Z,1.90
2022-12-09T12:24:46.287Z,1.80
2022-12-09T12:26:20.957Z,1.80
2022-12-09T12:27:50.746Z,1.80
2022-12-09T12:29:34.704Z,1.80
2022-12-09T12:31:02.836Z,1.80
2022-12-09T12:32:36.320Z,1.80
2022-12-09T12:34:24.508Z,1.80
2022-12-09T12:36:19.835Z,1.70
2022-12-09T12:37:50.871Z,1.70
2022-12-09T12:40:00.223Z,1.60
2022-12-09T12:41:39.568Z,1.50
2022-12-09T12:43:22.134Z,1.40
2022-12-09T12:45:25.609Z,1.40
2022-12-09T12:46:31.401Z,1.40
2022-12-09T12:47:39.797Z,1.30
2022-12-09T12:49:32.965Z,1.40
2022-12-09T12:52:56.893Z,1.50
2022-12-09T12:54:21.785Z,1.50
2022-12-09T12:55:54.046Z,1.50
2022-12-09T12:57:27.142Z,1.50
2022-12-09T12:58:52.523Z,1.60
2022-12-09T13:00:13.009Z,1.70
2022-12-09T13:01:22.458Z,1.70
2022-12-09T13:03:09.668Z,1.70
2022-12-09T13:04:40.021Z,1.70
2022-12-09T13:05:45.346Z,1.70
2022-12-09T13:07:07.386Z,1.70
2022-12-09T13:08:22.967Z,1.70
2022-12-09T13:09:53.813Z,1.60
2022-12-09T13:11:04.877Z,1.60
2022-12-09T13:12:43.828Z,1.60
2022-12-09T13:13:54.153Z,1.50
2022-12-09T13:14:56.473Z,1.50
2022-12-09T13:16:04.608Z,1.40
2022-12-09T13:17:13.021Z,1.40
2022-12-09T13:18:20.359Z,1.30
2022-12-09T13:19:40.451Z,1.30
2022-12-09T13:20:45.354Z,1.30
2022-12-09T13:21:48.261Z,1.30
2022-12-09T13:23:11.364Z,1.30
2022-12-09T13:24:46.312Z,1.30
2022-12-09T13:26:14.500Z,1.20
2022-12-09T13:27:19.726Z,1.20
2022-12-09T13:28:52.199Z,1.20
2022-12-09T13:30:11.007Z,1.10
2022-12-09T13:31:14.554Z,1.10
2022-12-09T13:32:44.537Z,1.10
2022-12-09T13:33:58.195Z,1.10
2022-12-09T13:35:16.622Z,1.10
2022-12-09T13:36:49.454Z,1.00
2022-12-09T13:37:52.447Z,1.00
2022-12-09T13:38:54.781Z,1.00
2022-12-09T13:39:58.678Z,1.00
2022-12-09T13:41:01.021Z,1.00
2022-12-09T13:42:22.032Z,1.00
2022-12-09T13:43:30.069Z,1.00
2022-12-09T13:44:36.010Z,1.00
2022-12-09T13:45:50.705Z,1.10
2022-12-09T13:46:53.112Z,1.10
2022-12-09T13:47:57.131Z,1.10
2022-12-09T13:49:17.411Z,1.10
2022-12-09T13:50:57.725Z,1.10
2022-12-09T13:52:00.107Z,1.10
2022-12-09T13:53:27.623Z,1.10
2022-12-09T13:54:30.545Z,1.10
2022-12-09T13:55:38.184Z,1.10
2022-12-09T13:56:41.855Z,1.10
2022-12-09T13:57:56.936Z,1.10
2022-12-09T13:59:32.583Z,1.10
2022-12-09T14:00:35.544Z,1.10
2022-12-09T14:01:43.958Z,1.10
2022-12-09T14:02:58.557Z,1.10
2022-12-09T14:04:14.066Z,1.10
2022-12-09T14:05:22.257Z,1.00
2022-12-09T14:06:50.294Z,1.00
2022-12-09T14:08:16.685Z,1.00
2022-12-09T14:09:24.735Z,1.00
2022-12-09T14:10:41.269Z,1.00
2022-12-09T14:11:47.624Z,0.90
2022-12-09T14:12:49.825Z,0.90
2022-12-09T14:13:52.060Z,0.90
2022-12-09T14:15:02.507Z,0.80
2022-12-09T14:16:16.963Z,0.90
2022-12-09T14:17:25.897Z,0.80
2022-12-09T14:18:32.990Z,0.80
2022-12-09T14:19:52.360Z,0.90
2022-12-09T14:21:18.912Z,0.90
2022-12-09T14:22:21.720Z,0.90
2022-12-09T14:23:24.175Z,0.90
2022-12-09T14:24:33.223Z,0.90
2022-12-09T14:25:35.559Z,0.90
2022-12-09T14:26:46.227Z,0.90
2022-12-09T14:28:10.422Z,0.90
2022-12-09T14:29:51.526Z,0.90
2022-12-09T14:31:06.624Z,0.90
2022-12-09T14:32:55.852Z,0.90
2022-12-09T14:33:58.641Z,0.80
2022-12-09T14:35:09.614Z,0.80
2022-12-09T14:36:14.731Z,0.80
2022-12-09T14:37:52.096Z,0.80
2022-12-09T14:39:24.748Z,0.90
2022-12-09T14:40:49.035Z,0.90
2022-12-09T14:42:30.471Z,0.90
2022-12-09T14:43:50.165Z,0.90
2022-12-09T14:45:24.791Z,1.00
2022-12-09T14:46:38.649Z,0.90
2022-12-09T14:47:45.488Z,1.00
2022-12-09T14:48:56.703Z,1.00
2022-12-09T14:50:22.601Z,1.00
2022-12-09T14:51:36.935Z,1.00
2022-12-09T14:52:52.045Z,1.00
2022-12-09T14:53:58.621Z,1.00
2022-12-09T14:55:06.312Z,1.00
2022-12-09T14:56:15.960Z,1.00
2022-12-09T14:57:47.812Z,1.00
2022-12-09T14:58:54.976Z,1.00
2022-12-09T14:59:57.514Z,1.00
2022-12-09T15:01:05.201Z,1.00
2022-12-09T15:02:07.755Z,1.00
2022-12-09T15:03:45.327Z,1.00
2022-12-09T15:04:46.872Z,1.00
2022-12-09T15:06:04.312Z,1.00
2022-12-09T15:07:13.003Z,1.00
2022-12-09T15:08:35.871Z,1.00
2022-12-09T15:09:47.674Z,1.00
2022-12-09T15:10:50.002Z,1.00
2022-12-09T15:11:52.271Z,1.00
2022-12-09T15:12:56.933Z,1.00
2022-12-09T15:14:23.339Z,1.00
2022-12-09T15:15:38.773Z,0.90
2022-12-09T15:16:46.385Z,1.00
2022-12-09T15:17:59.365Z,1.00
2022-12-09T15:19:01.605Z,0.90
2022-12-09T15:20:05.873Z,0.90
2022-12-09T15:21:08.814Z,1.00
2022-12-09T15:22:23.881Z,1.00
2022-12-09T15:23:38.980Z,1.00
2022-12-09T15:24:50.205Z,1.00
2022-12-09T15:25:55.909Z,1.00
2022-12-09T15:27:01.168Z,1.10
2022-12-09T15:28:21.429Z,1.10
2022-12-09T15:29:34.033Z,1.10
2022-12-09T15:30:37.607Z,1.10
2022-12-09T15:31:48.799Z,1.10
2022-12-09T15:32:51.180Z,1.10